Weather at Wakefield Municipal Airport

Public forecast

Using degrees Fahrenheit for public forecast. Weather courtesy of forecast.io.

Current aviation weather report (METAR) for Wakefield Municipal Airport

Retrieved 2020/11/24 05:54 UTC (20 minutes ago):

KAKQ 240554Z AUTO 00000KT 10SM CLR 03/00 A3031 RMK AO2 SLP266 T00280000 10089 20022 53009

Closest aviation forecast (TAF) to Wakefield Municipal Airport

Closest forecast is Felker Army Air Field, 20.7 nm (38.4 km) ENE. Retrieved 2020-11-24 03:00 UTC (3 hours ago):

TAF TAF KFAF 240300Z 2403/2509 34009KT 9999 SKC QNH3026INS BECMG 2407/2408 VRB06KT 9999 FEW050 QNH3030INS TX11/2419Z TN04/2412Z LAST NO AMDS AFT 2404 NEXT 2411